createdAt,value
2018-10-09T00:00:00.714Z,83.30
2018-10-09T00:02:30.726Z,83.47
2018-10-09T00:05:00.627Z,81.95
2018-10-09T00:07:30.697Z,85.30
2018-10-09T00:10:00.723Z,86.55
2018-10-09T00:12:30.709Z,77.97
2018-10-09T00:15:00.707Z,97.90
2018-10-09T00:17:30.743Z,111.55
2018-10-09T00:20:00.674Z,121.35
2018-10-09T00:22:30.718Z,88.92
2018-10-09T00:25:00.802Z,144.85
2018-10-09T00:27:30.748Z,195.50
2018-10-09T00:30:00.796Z,190.22
2018-10-09T00:32:30.779Z,187.25
2018-10-09T00:35:00.650Z,345.47
2018-10-09T00:37:30.861Z,425.55
2018-10-09T00:40:00.890Z,329.40
2018-10-09T00:42:30.899Z,330.23
2018-10-09T00:45:00.847Z,589.37
2018-10-09T00:47:30.776Z,360.20
2018-10-09T00:50:00.961Z,409.80
2018-10-09T00:52:30.962Z,467.40
2018-10-09T00:55:00.966Z,674.12
2018-10-09T00:57:30.857Z,487.55
2018-10-09T01:00:00.846Z,539.17
2018-10-09T01:02:30.926Z,509.40
2018-10-09T01:05:00.963Z,665.10
2018-10-09T01:07:30.904Z,498.62
2018-10-09T01:10:01.078Z,439.23
2018-10-09T01:12:30.942Z,378.20
2018-10-09T01:15:00.968Z,566.30
2018-10-09T01:17:30.966Z,613.37
2018-10-09T01:20:00.870Z,589.40
2018-10-09T01:22:31.054Z,299.90
2018-10-09T01:25:01.061Z,275.35
2018-10-09T01:27:30.980Z,316.85
2018-10-09T01:30:01.183Z,277.60
2018-10-09T01:32:31.054Z,429.25
2018-10-09T01:35:01.082Z,340.98
2018-10-09T01:37:31.109Z,366.80
2018-10-09T01:40:01.106Z,494.93
2018-10-09T01:42:31.047Z,293.30
2018-10-09T01:45:01.142Z,288.85
2018-10-09T01:47:31.123Z,282.48
2018-10-09T01:50:01.155Z,170.45
2018-10-09T01:52:31.155Z,112.35
2018-10-09T01:55:01.146Z,98.00
2018-10-09T01:57:31.142Z,93.47
2018-10-09T02:00:01.185Z,89.85
2018-10-09T02:02:31.113Z,94.85
2018-10-09T02:05:01.174Z,92.37
2018-10-09T02:07:31.282Z,115.50
2018-10-09T02:10:01.326Z,91.90
2018-10-09T02:12:31.405Z,97.50
2018-10-09T02:15:01.301Z,90.45
2018-10-09T02:17:31.282Z,94.83
2018-10-09T02:20:01.255Z,85.20
2018-10-09T02:22:31.306Z,93.20
2018-10-09T02:25:01.325Z,96.02
2018-10-09T02:27:31.301Z,81.05
2018-10-09T02:30:01.243Z,87.90
2018-10-09T02:32:31.360Z,90.75
2018-10-09T02:35:01.404Z,85.60
2018-10-09T02:37:31.427Z,98.20
2018-10-09T02:40:01.426Z,88.90
2018-10-09T02:42:31.414Z,79.13
2018-10-09T02:45:01.461Z,90.80
2018-10-09T02:47:31.594Z,85.77
2018-10-09T02:50:01.547Z,80.12
2018-10-09T02:52:31.410Z,79.47
2018-10-09T02:55:01.490Z,85.12
2018-10-09T02:57:31.433Z,84.87
2018-10-09T03:00:01.786Z,94.92
2018-10-09T03:02:31.631Z,88.95
2018-10-09T03:05:01.510Z,91.35
2018-10-09T03:07:31.510Z,80.62
2018-10-09T03:10:01.599Z,85.75
2018-10-09T03:12:31.505Z,94.50
2018-10-09T03:15:01.550Z,87.72
2018-10-09T03:17:31.644Z,90.22
2018-10-09T03:20:01.619Z,89.47
2018-10-09T03:22:31.606Z,87.27
2018-10-09T03:25:01.720Z,84.87
2018-10-09T03:27:31.757Z,80.42
2018-10-09T03:30:01.654Z,86.57
2018-10-09T03:32:31.795Z,89.92
2018-10-09T03:35:01.766Z,97.35
2018-10-09T03:37:31.809Z,103.45
2018-10-09T03:40:01.842Z,104.40
2018-10-09T03:42:31.856Z,107.72
2018-10-09T03:45:01.965Z,103.78
2018-10-09T03:47:31.966Z,101.50
2018-10-09T03:50:01.934Z,113.50
2018-10-09T03:52:31.823Z,102.72
2018-10-09T03:55:01.838Z,89.97
2018-10-09T03:57:31.930Z,85.60
2018-10-09T04:00:01.945Z,97.17
2018-10-09T04:02:31.887Z,102.75
2018-10-09T04:05:02.166Z,98.67
2018-10-09T04:07:31.991Z,97.30
2018-10-09T04:10:01.906Z,89.65
2018-10-09T04:12:32.029Z,93.40
2018-10-09T04:15:01.990Z,83.27
2018-10-09T04:17:32.147Z,102.90
2018-10-09T04:20:02.058Z,89.90
2018-10-09T04:22:32.010Z,91.80
2018-10-09T04:25:02.051Z,96.17
2018-10-09T04:27:32.131Z,81.78
2018-10-09T04:30:02.093Z,85.12
2018-10-09T04:32:32.183Z,89.45
2018-10-09T04:35:02.162Z,97.75
2018-10-09T04:37:31.992Z,90.28
2018-10-09T04:40:02.222Z,85.62
2018-10-09T04:42:32.147Z,86.92
2018-10-09T04:45:02.154Z,83.92
2018-10-09T04:47:32.143Z,83.22
2018-10-09T04:50:02.208Z,86.75
2018-10-09T04:52:32.135Z,80.75
2018-10-09T04:55:02.314Z,88.55
2018-10-09T04:57:32.149Z,77.37
2018-10-09T05:00:02.128Z,79.47
2018-10-09T05:02:32.370Z,82.88
2018-10-09T05:05:02.367Z,80.32
2018-10-09T05:07:32.283Z,68.30
2018-10-09T05:10:02.298Z,78.43
2018-10-09T05:12:32.429Z,68.72
2018-10-09T05:15:02.300Z,58.47
2018-10-09T05:17:32.410Z,74.07
2018-10-09T05:20:02.406Z,61.75
2018-10-09T05:22:32.394Z,68.88
2018-10-09T05:25:02.486Z,61.77
2018-10-09T05:27:32.495Z,63.88
2018-10-09T05:30:02.505Z,66.97
2018-10-09T05:32:32.770Z,81.30
2018-10-09T05:35:03.110Z,76.73
2018-10-09T05:37:33.138Z,68.82
2018-10-09T05:40:03.419Z,73.35
2018-10-09T05:42:34.125Z,73.45
2018-10-09T05:45:03.397Z,85.80
2018-10-09T05:47:40.030Z,71.38
2018-10-09T05:50:10.287Z,86.57
2018-10-09T05:52:39.737Z,73.53
2018-10-09T05:55:09.290Z,79.80
2018-10-09T05:57:38.414Z,76.30
2018-10-09T06:00:09.114Z,73.47
2018-10-09T06:02:38.261Z,90.17
2018-10-09T06:05:07.470Z,81.47
2018-10-09T06:07:36.700Z,84.23
2018-10-09T06:10:06.625Z,82.37
2018-10-09T06:12:35.810Z,83.90
2018-10-09T06:15:05.356Z,84.97
2018-10-09T06:17:34.762Z,76.87
2018-10-09T06:20:04.082Z,80.38
2018-10-09T06:22:34.221Z,85.07
2018-10-09T06:25:04.110Z,90.40
2018-10-09T06:27:34.110Z,87.62
2018-10-09T06:30:04.126Z,89.37
2018-10-09T06:32:34.290Z,92.56
2018-10-09T06:35:04.926Z,93.85
2018-10-09T06:37:34.413Z,94.70
2018-10-09T06:40:04.481Z,94.75
2018-10-09T06:42:34.480Z,106.32
2018-10-09T06:45:04.338Z,98.52
2018-10-09T06:47:34.509Z,92.15
2018-10-09T06:50:04.430Z,106.43
2018-10-09T06:52:34.587Z,93.90
2018-10-09T06:55:04.602Z,104.38
2018-10-09T06:57:34.554Z,93.58
2018-10-09T07:00:04.543Z,90.12
2018-10-09T07:02:34.617Z,92.33
2018-10-09T07:05:04.582Z,83.78
2018-10-09T07:07:34.550Z,86.82
2018-10-09T07:10:04.574Z,110.92
2018-10-09T07:12:34.710Z,83.27
2018-10-09T07:15:04.600Z,82.42
2018-10-09T07:17:34.719Z,90.72
2018-10-09T07:20:04.622Z,95.55
2018-10-09T07:22:34.662Z,92.46
2018-10-09T07:25:04.666Z,90.40
2018-10-09T07:27:34.689Z,97.86
2018-10-09T07:30:05.605Z,90.28
2018-10-09T07:32:34.810Z,95.05
2018-10-09T07:35:04.978Z,87.70
2018-10-09T07:37:34.793Z,88.40
2018-10-09T07:40:04.729Z,102.58
2018-10-09T07:42:40.259Z,91.28
2018-10-09T07:45:09.459Z,89.28
2018-10-09T07:47:38.628Z,86.70
2018-10-09T07:50:07.873Z,87.40
2018-10-09T07:52:37.019Z,84.55
2018-10-09T07:55:06.102Z,86.00
2018-10-09T07:57:35.343Z,83.45
2018-10-09T08:00:04.919Z,88.10
2018-10-09T08:02:35.009Z,94.82
2018-10-09T08:05:04.979Z,87.65
2018-10-09T08:07:34.970Z,87.74
2018-10-09T08:10:04.946Z,88.27
2018-10-09T08:12:35.007Z,86.00
2018-10-09T08:15:04.968Z,81.60
2018-10-09T08:17:35.150Z,84.56
2018-10-09T08:20:05.070Z,77.95
2018-10-09T08:22:35.145Z,84.20
2018-10-09T08:25:04.976Z,83.80
2018-10-09T08:27:35.095Z,89.14
2018-10-09T08:30:05.379Z,75.75
2018-10-09T08:32:35.188Z,92.12
2018-10-09T08:35:05.102Z,75.65
2018-10-09T08:37:35.254Z,80.45
2018-10-09T08:40:05.602Z,80.40
2018-10-09T08:42:35.198Z,84.10
2018-10-09T08:45:05.274Z,81.53
2018-10-09T08:47:35.303Z,81.12
2018-10-09T08:50:05.103Z,75.22
2018-10-09T08:52:35.457Z,75.20
2018-10-09T08:55:05.166Z,84.30
2018-10-09T08:57:35.254Z,86.80
2018-10-09T09:00:05.770Z,82.42
2018-10-09T09:02:35.373Z,81.10
2018-10-09T09:05:05.555Z,88.92
2018-10-09T09:07:35.384Z,75.28
2018-10-09T09:10:05.853Z,74.40
2018-10-09T09:12:35.351Z,91.97
2018-10-09T09:15:05.318Z,76.90
2018-10-09T09:17:35.335Z,68.87
2018-10-09T09:20:05.217Z,75.40
2018-10-09T09:22:34.375Z,77.50
2018-10-09T09:25:03.479Z,74.77
2018-10-09T09:27:32.603Z,89.80
2018-10-09T09:30:01.760Z,73.87
2018-10-09T09:32:30.998Z,78.47
2018-10-09T09:35:00.131Z,74.77
2018-10-09T09:37:29.280Z,79.87
2018-10-09T09:39:58.375Z,82.40
2018-10-09T09:42:27.648Z,78.50
2018-10-09T09:44:56.855Z,74.40
2018-10-09T09:47:26.120Z,81.23
2018-10-09T09:49:55.341Z,75.80
2018-10-09T09:52:24.565Z,81.23
2018-10-09T09:54:53.802Z,75.27
2018-10-09T09:57:22.948Z,79.60
2018-10-09T09:59:52.403Z,87.40
2018-10-09T10:02:21.702Z,74.87
2018-10-09T10:04:50.901Z,79.87
2018-10-09T10:07:20.122Z,93.07
2018-10-09T10:09:49.351Z,80.67
2018-10-09T10:12:18.555Z,77.30
2018-10-09T10:14:47.727Z,79.70
2018-10-09T10:17:16.930Z,80.40
2018-10-09T10:19:46.142Z,69.60
2018-10-09T10:22:15.389Z,63.60
2018-10-09T10:24:44.542Z,69.43
2018-10-09T10:27:13.694Z,79.50
2018-10-09T10:29:42.905Z,80.20
2018-10-09T10:32:12.090Z,75.97
2018-10-09T10:34:41.300Z,69.43
2018-10-09T10:37:10.510Z,71.00
2018-10-09T10:39:39.630Z,64.27
2018-10-09T10:42:08.861Z,58.98
2018-10-09T10:44:38.167Z,56.65
2018-10-09T10:47:07.527Z,55.10
2018-10-09T10:49:36.831Z,63.83
2018-10-09T10:52:06.842Z,67.97
2018-10-09T10:54:36.091Z,56.55
2018-10-09T10:57:05.937Z,61.15
2018-10-09T10:59:35.949Z,58.60
2018-10-09T11:02:05.934Z,59.30
2018-10-09T11:04:35.979Z,68.56
2018-10-09T11:07:06.074Z,95.70
2018-10-09T11:09:35.966Z,66.62
2018-10-09T11:12:06.154Z,58.35
2018-10-09T11:14:35.971Z,57.04
2018-10-09T11:17:06.014Z,44.25
2018-10-09T11:19:36.075Z,46.38
2018-10-09T11:22:06.108Z,53.63
2018-10-09T11:24:36.134Z,49.18
2018-10-09T11:27:06.159Z,54.18
2018-10-09T11:29:36.558Z,55.70
2018-10-09T11:32:06.370Z,48.42
2018-10-09T11:34:36.616Z,55.20
2018-10-09T11:37:06.415Z,60.33
2018-10-09T11:39:36.183Z,66.00
2018-10-09T11:42:06.258Z,62.20
2018-10-09T11:44:36.246Z,59.45
2018-10-09T11:47:06.402Z,71.45
2018-10-09T11:49:36.333Z,61.25
2018-10-09T11:52:06.236Z,59.00
2018-10-09T11:54:36.558Z,147.08
2018-10-09T11:57:06.367Z,59.35
2018-10-09T11:59:36.389Z,39.63
2018-10-09T12:02:06.384Z,39.80
2018-10-09T12:04:36.536Z,48.63
2018-10-09T12:07:06.420Z,40.30
2018-10-09T12:09:36.511Z,34.95
2018-10-09T12:12:06.426Z,34.27
2018-10-09T12:14:36.394Z,41.30
2018-10-09T12:17:06.315Z,40.50
2018-10-09T12:19:36.398Z,46.32
2018-10-09T12:22:06.507Z,38.08
2018-10-09T12:24:36.513Z,40.08
2018-10-09T12:27:06.494Z,35.47
2018-10-09T12:29:36.524Z,43.16
2018-10-09T12:32:06.766Z,40.38
2018-10-09T12:34:36.603Z,30.50
2018-10-09T12:37:06.494Z,38.17
2018-10-09T12:39:36.536Z,34.66
2018-10-09T12:42:06.822Z,54.83
2018-10-09T12:44:36.647Z,39.62
2018-10-09T12:47:06.870Z,36.53
2018-10-09T12:49:36.676Z,33.50
2018-10-09T12:52:06.688Z,45.48
2018-10-09T12:54:36.738Z,38.58
2018-10-09T12:57:06.756Z,40.35
2018-10-09T12:59:36.734Z,41.88
2018-10-09T13:02:06.598Z,41.63
2018-10-09T13:04:36.794Z,35.48
2018-10-09T13:07:06.787Z,37.83
2018-10-09T13:09:36.810Z,37.94
2018-10-09T13:12:06.874Z,40.28
2018-10-09T13:14:37.319Z,36.30
2018-10-09T13:17:06.834Z,45.92
2018-10-09T13:19:36.842Z,78.60
2018-10-09T13:22:07.234Z,41.55
2018-10-09T13:24:36.905Z,39.38
2018-10-09T13:27:06.872Z,44.90
2018-10-09T13:29:37.043Z,49.50
2018-10-09T13:32:06.962Z,44.38
2018-10-09T13:34:36.982Z,39.60
2018-10-09T13:37:07.007Z,46.55
2018-10-09T13:39:37.119Z,43.20
2018-10-09T13:42:06.934Z,38.58
2018-10-09T13:44:37.080Z,46.64
2018-10-09T13:47:07.076Z,53.43
2018-10-09T13:49:37.115Z,39.16
2018-10-09T13:52:07.559Z,38.85
2018-10-09T13:54:37.129Z,45.33
2018-10-09T13:57:07.307Z,42.60
2018-10-09T13:59:37.114Z,51.15
2018-10-09T14:02:07.145Z,41.53
2018-10-09T14:04:37.138Z,54.30
2018-10-09T14:07:07.170Z,50.83
2018-10-09T14:09:37.170Z,43.32
2018-10-09T14:12:07.794Z,48.90
2018-10-09T14:14:37.398Z,55.73
2018-10-09T14:17:07.230Z,45.23
2018-10-09T14:19:37.389Z,41.28
2018-10-09T14:22:07.261Z,40.05
2018-10-09T14:24:37.324Z,42.44
2018-10-09T14:27:07.358Z,47.00
2018-10-09T14:29:37.308Z,54.63
2018-10-09T14:32:07.090Z,40.52
2018-10-09T14:34:37.345Z,49.90
2018-10-09T14:37:08.061Z,53.70
2018-10-09T14:39:37.538Z,55.28
2018-10-09T14:42:07.490Z,54.73
2018-10-09T14:44:37.559Z,48.68
2018-10-09T14:47:07.606Z,49.30
2018-10-09T14:49:37.462Z,44.82
2018-10-09T14:52:07.875Z,48.55
2018-10-09T14:54:37.638Z,49.36
2018-10-09T14:57:07.628Z,47.78
2018-10-09T14:59:37.626Z,49.16
2018-10-09T15:02:07.728Z,46.23
2018-10-09T15:04:37.548Z,47.58
2018-10-09T15:07:07.642Z,54.03
2018-10-09T15:09:37.751Z,57.12
2018-10-09T15:12:07.876Z,58.38
2018-10-09T15:14:38.015Z,54.24
2018-10-09T15:17:07.898Z,58.00
2018-10-09T15:19:37.846Z,64.16
2018-10-09T15:22:07.862Z,62.70
2018-10-09T15:24:37.982Z,58.62
2018-10-09T15:27:09.341Z,58.33
2018-10-09T15:29:38.479Z,55.85
2018-10-09T15:32:08.054Z,60.23
2018-10-09T15:34:38.059Z,69.26
2018-10-09T15:37:07.982Z,62.48
2018-10-09T15:39:38.071Z,56.48
2018-10-09T15:42:07.987Z,63.90
2018-10-09T15:44:38.034Z,59.42
2018-10-09T15:47:08.198Z,56.98
2018-10-09T15:49:38.100Z,68.36
2018-10-09T15:52:08.066Z,63.42
2018-10-09T15:54:38.354Z,64.90
2018-10-09T15:57:08.938Z,66.57
2018-10-09T15:59:38.698Z,65.74
2018-10-09T16:02:08.539Z,71.33
2018-10-09T16:04:38.627Z,63.76
2018-10-09T16:07:08.501Z,294.23
2018-10-09T16:09:38.576Z,62.58
2018-10-09T16:12:08.626Z,68.15
2018-10-09T16:14:38.707Z,68.42
2018-10-09T16:17:08.804Z,71.15
2018-10-09T16:19:38.773Z,62.36
2018-10-09T16:22:08.699Z,71.35
2018-10-09T16:24:38.750Z,64.38
2018-10-09T16:27:15.263Z,63.45
2018-10-09T16:29:44.558Z,79.53
2018-10-09T16:32:14.158Z,71.70
2018-10-09T16:34:43.960Z,68.25
2018-10-09T16:37:13.191Z,63.13
2018-10-09T16:39:42.271Z,63.30
2018-10-09T16:42:11.347Z,68.17
2018-10-09T16:44:40.474Z,61.20
2018-10-09T16:47:09.579Z,64.17
2018-10-09T16:49:39.301Z,73.20
2018-10-09T16:52:08.834Z,68.37
2018-10-09T16:54:38.960Z,67.40
2018-10-09T16:57:09.398Z,82.02
2018-10-09T16:59:39.005Z,84.85
2018-10-09T17:02:09.029Z,94.15
2018-10-09T17:04:39.126Z,67.32
2018-10-09T17:07:08.278Z,63.77
2018-10-09T17:09:37.474Z,70.37
2018-10-09T17:12:06.686Z,64.60
2018-10-09T17:14:35.858Z,77.60
2018-10-09T17:17:05.050Z,76.80
2018-10-09T17:19:34.275Z,70.03
2018-10-09T17:22:03.412Z,73.37
2018-10-09T17:24:32.742Z,69.50
2018-10-09T17:27:01.961Z,68.07
2018-10-09T17:29:31.176Z,67.23
2018-10-09T17:32:00.268Z,77.33
2018-10-09T17:34:29.398Z,67.60
2018-10-09T17:36:58.560Z,74.30
2018-10-09T17:39:27.725Z,90.13
2018-10-09T17:41:56.858Z,82.50
2018-10-09T17:44:27.178Z,79.17
2018-10-09T17:46:56.437Z,82.75
2018-10-09T17:49:25.526Z,72.40
2018-10-09T17:51:54.718Z,76.22
2018-10-09T17:54:23.838Z,76.90
2018-10-09T17:56:52.965Z,71.25
2018-10-09T17:59:22.144Z,76.07
2018-10-09T18:01:51.308Z,62.33
2018-10-09T18:04:20.466Z,70.07
2018-10-09T18:06:49.587Z,77.05
2018-10-09T18:09:18.761Z,71.17
2018-10-09T18:11:47.862Z,69.45
2018-10-09T18:14:17.089Z,65.60
2018-10-09T18:16:46.259Z,62.10
2018-10-09T18:19:15.469Z,66.33
2018-10-09T18:21:44.639Z,113.45
2018-10-09T18:24:14.019Z,108.83
2018-10-09T18:26:43.206Z,74.30
2018-10-09T18:29:12.367Z,71.63
2018-10-09T18:31:41.497Z,74.70
2018-10-09T18:34:10.790Z,70.17
2018-10-09T18:36:40.555Z,67.08
2018-10-09T18:39:15.622Z,74.03
2018-10-09T18:41:45.822Z,64.67
2018-10-09T18:44:15.422Z,72.00
2018-10-09T18:46:44.489Z,64.77
2018-10-09T18:49:13.632Z,64.60
2018-10-09T18:51:42.835Z,75.08
2018-10-09T18:54:12.210Z,74.37
2018-10-09T18:56:41.333Z,73.83
2018-10-09T18:59:10.871Z,78.85
2018-10-09T19:01:40.955Z,70.40
2018-10-09T19:04:11.133Z,74.95
2018-10-09T19:06:40.954Z,70.04
2018-10-09T19:09:12.199Z,64.80
2018-10-09T19:11:41.430Z,64.20
2018-10-09T19:14:10.988Z,64.07
2018-10-09T19:16:40.904Z,69.10
2018-10-09T19:19:10.916Z,55.12
2018-10-09T19:21:41.033Z,56.92
2018-10-09T19:24:11.014Z,69.35
2018-10-09T19:26:40.970Z,62.36
2018-10-09T19:29:11.199Z,68.22
2018-10-09T19:31:41.154Z,64.70
2018-10-09T19:34:11.040Z,59.27
2018-10-09T19:36:41.062Z,57.14
2018-10-09T19:39:12.674Z,64.53
2018-10-09T19:41:41.996Z,56.53
2018-10-09T19:44:11.214Z,64.17
2018-10-09T19:46:41.210Z,62.12
2018-10-09T19:49:11.234Z,60.63
2018-10-09T19:51:41.303Z,59.08
2018-10-09T19:54:11.391Z,57.80
2018-10-09T19:56:41.442Z,59.27
2018-10-09T19:59:11.414Z,67.45
2018-10-09T20:01:41.421Z,90.22
2018-10-09T20:04:11.435Z,64.80
2018-10-09T20:06:41.470Z,73.62
2018-10-09T20:09:13.211Z,58.73
2018-10-09T20:11:42.405Z,66.03
2018-10-09T20:14:13.096Z,61.03
2018-10-09T20:16:42.393Z,62.43
2018-10-09T20:19:12.182Z,64.70
2018-10-09T20:21:41.498Z,61.20
2018-10-09T20:24:11.570Z,58.63
2018-10-09T20:26:42.607Z,58.70
2018-10-09T20:29:11.772Z,57.80
2018-10-09T20:31:41.622Z,53.08
2018-10-09T20:34:11.652Z,58.23
2018-10-09T20:36:41.759Z,58.22
2018-10-09T20:39:12.344Z,70.75
2018-10-09T20:41:41.753Z,62.97
2018-10-09T20:44:11.726Z,58.98
2018-10-09T20:46:41.740Z,67.72
2018-10-09T20:49:11.771Z,66.22
2018-10-09T20:51:41.881Z,74.62
2018-10-09T20:54:11.935Z,68.87
2018-10-09T20:56:41.870Z,76.72
2018-10-09T20:59:11.814Z,94.80
2018-10-09T21:01:41.013Z,93.80
2018-10-09T21:04:10.163Z,74.23
2018-10-09T21:06:39.563Z,65.95
2018-10-09T21:09:08.702Z,69.70
2018-10-09T21:11:37.820Z,54.25
2018-10-09T21:14:07.053Z,61.20
2018-10-09T21:16:36.299Z,66.60
2018-10-09T21:19:05.524Z,58.73
2018-10-09T21:21:38.317Z,52.47
2018-10-09T21:24:07.447Z,65.97
2018-10-09T21:26:36.621Z,61.40
2018-10-09T21:29:05.795Z,62.10
2018-10-09T21:31:34.894Z,86.55
2018-10-09T21:34:04.068Z,71.03
2018-10-09T21:36:33.351Z,74.07
2018-10-09T21:39:02.482Z,64.67
2018-10-09T21:41:31.602Z,59.67
2018-10-09T21:44:00.725Z,66.60
2018-10-09T21:46:29.802Z,65.77
2018-10-09T21:48:59.014Z,65.20
2018-10-09T21:51:28.149Z,61.20
2018-10-09T21:53:57.418Z,59.00
2018-10-09T21:56:27.309Z,73.28
2018-10-09T21:58:56.585Z,63.73
2018-10-09T22:01:26.439Z,68.43
2018-10-09T22:03:55.660Z,74.00
2018-10-09T22:06:24.842Z,70.13
2018-10-09T22:08:54.157Z,66.50
2018-10-09T22:11:23.273Z,67.97
2018-10-09T22:13:52.471Z,58.58
2018-10-09T22:16:21.603Z,61.10
2018-10-09T22:18:50.790Z,58.37
2018-10-09T22:21:19.902Z,64.83
2018-10-09T22:23:49.058Z,65.50
2018-10-09T22:26:18.224Z,78.22
2018-10-09T22:28:47.327Z,59.07
2018-10-09T22:31:16.515Z,59.98
2018-10-09T22:33:45.689Z,62.73
2018-10-09T22:36:14.923Z,55.27
2018-10-09T22:38:44.122Z,58.55
2018-10-09T22:41:13.636Z,57.27
2018-10-09T22:43:43.670Z,55.74
2018-10-09T22:46:13.742Z,57.75
2018-10-09T22:48:43.798Z,64.40
2018-10-09T22:51:13.853Z,52.05
2018-10-09T22:53:43.918Z,51.33
2018-10-09T22:56:13.846Z,59.10
2018-10-09T22:58:43.826Z,58.62
2018-10-09T23:01:13.766Z,56.15
2018-10-09T23:03:43.998Z,56.18
2018-10-09T23:06:13.958Z,63.15
2018-10-09T23:08:43.982Z,65.62
2018-10-09T23:11:13.990Z,61.68
2018-10-09T23:13:44.054Z,62.04
2018-10-09T23:16:14.074Z,55.20
2018-10-09T23:18:44.181Z,82.92
2018-10-09T23:21:14.115Z,64.53
2018-10-09T23:23:44.271Z,63.52
2018-10-09T23:26:14.038Z,64.10
2018-10-09T23:28:44.193Z,63.76
2018-10-09T23:31:14.200Z,77.35
2018-10-09T23:33:44.198Z,70.06
2018-10-09T23:36:14.285Z,69.67
2018-10-09T23:38:44.225Z,62.58
2018-10-09T23:41:14.293Z,60.45
2018-10-09T23:43:44.305Z,63.60
2018-10-09T23:46:14.399Z,63.50
2018-10-09T23:48:44.483Z,63.80
2018-10-09T23:51:14.490Z,65.45
2018-10-09T23:53:44.584Z,70.60
2018-10-09T23:56:14.454Z,67.75
2018-10-09T23:58:44.461Z,70.66
